Аэропорт: Атырау. Атырау

ICAO: UATG

METAR:
2021-10-23 02:00:00
UATG 230200Z 20006MPS 5000 BR BKN006 12/11 Q1021 R14/CLRD70 TEMPO BKN003 RMK QBB200 QFE768/1024
METAR:
2021-10-22 23:04:00
TAF UATG 222304Z 2300/2324 20006MPS 3100 BR SCT020 TX16/2312Z TN07/2303Z TEMPO 2300/2306 0300 FG VV001 FM230700 22011MPS 9999 SCT033